Ingomar, MT (59039)

10:36 AM MDT on July 10, 2014 (GMT -0600)
Billings Logan International (KBIL) Elev 3570 ft | 45.81 °N, 108.54 °W | Change Station

Current weather conditions updated 43 minutes ago

Partly Cloudy
Partly Cloudy
78 °F
Feels Like 78 °F
N
8
Wind Variable Wind from South

Today is forecast to be nearly the same temperature as yesterday.

Today
High -- | Low -- °F
--% Chance of Precip.
Yesterday
High -- | Low -- °F
Precip. -- in
5:27 AM 9:03 PM
Waxing Gibbous, 95% visible
Pressure 29.80 in
Visibility 10.0 miles
Clouds Few 9500 ft
Dew Point 57 °F
Humidity 48%
Rainfall 0.01 in
Snow Depth Not available.
UV 6 out of 12
Pollen 5.20 out of 12
Air Quality Not available.
Flu Activity Sporadic
METAR KBIL 101553Z 19007KT 10SM FEW095 26/14 A2992 RMK AO2 SLP089 T02560139

More Conditions Fewer Conditions

Pressure 29.80 in
Visibility 10.0 miles
Clouds Few 9500 ft
Dew Point 57 °F
Humidity 48%
Rainfall 0.01 in
Snow Depth Not available.
UV 6 out of 12
Pollen 5.20 out of 12
Air Quality Not available.
Flu Activity Sporadic
METAR KBIL 101553Z 19007KT 10SM FEW095 26/14 A2992 RMK AO2 SLP089 T02560139

More Conditions Fewer Conditions

10-Day Weather Forecast

Almanac

Astronomy

Jul. 10, 2014 Rise Set
Actual Time 5:27 AM MDT 9:03 PM MDT
Civil Twilight 4:48 AM MDT 9:41 PM MDT
Nautical Twilight 3:57 AM MDT 10:32 PM MDT
Astronomical Twilight 2:48 AM MDT 11:41 PM MDT
Moon 7:15 PM MDT 3:45 AM MDT
Length of Visible Light 16h 52m
Length of Day
15h 36m
Tomorrow will be 1m 29s shorter.
Waxing Gibbous, 95% of the Moon is Illuminated
Today
Waxing Gibbous
Jul 12
Full
Jul 18
Last Quarter
Jul 26
New
Aug 3
First Quarter

Today's Extremes

State Highs State Lows

Community

WunderPhotos

Upload Photos

1,732,184 photos uploaded!

Nearby

Snow Depth

Station Depth Elevation
Crystal Lake 0 in 6050 ft
Cole Creek 0 in 7850 ft
Burnt Mountain 1 in 5880 ft
South Fork Shields 0 in 8100 ft
Porcupine 1 in 6500 ft

Earthquake Activity

City Distance Mag. Time & Date
No recent earthquake activity has been reported nearby.
Minimum magnitude displayed is 2.5.

Coastal Water Temperatures

Place Temperature
No Stations Reporting

Nearby Weather Stations

Station Location Temp. Heat Index Dew Point Humidity Wind Precip. Elev Updated Type
MesoWest Lower Musselshell , Musselshell, MT 76 °F 78 °F 55 °F 48% WSW  at  - 0.00 in / hr 2950 ft 8:45 AM MDT MADIS

Show More Stations Show Fewer Stations